ADDS TAF Data INFO
IDs: Format: Raw Decoded Include METARs

Data at: 1412 UTC 19 Nov 2017

KDMA 191358Z AUTO 14008KT 10SM CLR 10/M05 A3006 RMK AO2 SLP159 T01031053 $

TAF KDMA 191403Z 1914/2020 13009KT 9999 SKC QNH3007INS
  BECMG 1915/1916 09009KT 9999 SKC QNH3008INS
  BECMG 1917/1918 09015G20KT 9999 SKC QNH2998INS
  BECMG 2002/2003 14009KT 9999 SKC QNH3002INS
  BECMG 2017/2018 31009KT 9999 SKC QNH3005INS TX25/1921Z TN08/1914Z